Weather at Leptokarya Military Heliport

Public forecast

Using degrees Celsius for public forecast. Weather courtesy of forecast.io.

Closest aviation weather report (METAR) to Leptokarya Military Heliport

Closest report is Larissa Air Base, 25.8 nm (47.7 km) S.

2024/05/20 18:50 (retrieved 44 minutes ago)

LGLR 201850Z 09008KT 9999 FEW090 20/10 Q1013 RMK SCT180 BLU

Closest aviation forecast (TAF) to Leptokarya Military Heliport

Closest forecast is Thessaloniki Macedonia International Airport, 32.6 nm (60.3 km) NE.

2024/05/20 18:15 (retrieved 1 hour ago)

TAF LGTS 201700Z 2018/2118 VRB03KT 9999 FEW025 TEMPO 2111/2118 17010KT